Time;durP1;ratioP1;P1;durP2;ratioP2;P2;SDS_P1;SDS_P2;PMS_P1;PMS_P2;Temp;Humidity;BMP_temperature;BMP_pressure;BME280_temperature;BME280_humidity;BME280_pressure;Samples;Min_cycle;Max_cycle;Signal;HPM_P1;HPM_P2
2023/04/15 00:01:59;;;;;;;;;7.67;7.67;;;;;17.34;91.59;100056.56;5093452;28;45354;-78
2023/04/15 00:04:24;;;;;;;;;11.00;10.00;;;;;17.31;91.81;100057.03;5093072;28;45449;-79
2023/04/15 00:06:53;;;;;;;;;9.33;9.33;;;;;17.32;92.00;100055.13;5092394;28;45366;-79
2023/04/15 00:09:19;;;;;;;;;9.00;9.00;;;;;17.35;92.31;100060.03;5074015;28;47923;-79
2023/04/15 00:11:45;;;;;;;;;6.33;6.00;;;;;17.35;91.99;100054.66;5074943;28;45287;-79
2023/04/15 00:14:11;;;;;;;;;7.67;7.67;;;;;17.31;92.35;100048.13;5088697;28;45224;-79
2023/04/15 00:16:37;;;;;;;;;5.67;5.67;;;;;17.26;92.63;100038.94;5074261;28;47024;-78
2023/04/15 00:19:02;;;;;;;;;8.67;7.00;;;;;17.26;92.82;100046.16;5069579;28;53321;-79
2023/04/15 00:21:27;;;;;;;;;7.67;7.67;;;;;17.26;92.45;100040.78;5090768;28;45307;-79
2023/04/15 00:23:53;;;;;;;;;12.33;7.67;;;;;17.32;92.44;100036.34;5068821;28;45390;-79
2023/04/15 00:26:19;;;;;;;;;10.00;9.67;;;;;17.27;92.71;100016.38;5071492;28;45337;-79
2023/04/15 00:28:45;;;;;;;;;9.33;9.33;;;;;17.33;92.59;100016.50;5075267;28;45480;-79
2023/04/15 00:31:10;;;;;;;;;6.33;6.00;;;;;17.24;92.18;100006.13;5088793;28;45351;-79
2023/04/15 00:33:36;;;;;;;;;7.00;7.00;;;;;17.23;92.03;100009.88;5093016;27;45367;-80
2023/04/15 00:36:02;;;;;;;;;7.00;5.67;;;;;17.20;92.63;100004.97;5088460;28;46209;-78
2023/04/15 00:38:27;;;;;;;;;6.67;6.33;;;;;17.22;92.67;100005.56;5089343;27;46207;-79
2023/04/15 00:40:54;;;;;;;;;6.00;6.00;;;;;17.20;92.27;100002.28;5088462;28;45356;-79
2023/04/15 00:43:19;;;;;;;;;6.33;6.33;;;;;17.24;92.84;100008.81;5091084;27;45363;-79
2023/04/15 00:45:45;;;;;;;;;8.33;5.33;;;;;17.22;92.54;99992.13;5088518;28;46106;-79
2023/04/15 00:48:13;;;;;;;;;7.33;7.33;;;;;17.31;92.54;99997.94;5088225;27;45262;-79
2023/04/15 00:50:38;;;;;;;;;6.00;6.00;;;;;17.27;92.76;100000.28;5089320;28;45450;-79
2023/04/15 00:53:03;;;;;;;;;6.67;6.67;;;;;17.27;93.05;99989.53;5087807;27;45243;-79
2023/04/15 00:55:29;;;;;;;;;7.67;6.67;;;;;17.23;92.66;99985.69;5087411;28;46306;-78
2023/04/15 00:57:56;;;;;;;;;6.33;6.33;;;;;17.16;92.85;99993.06;5092788;28;46371;-79
2023/04/15 01:00:21;;;;;;;;;6.67;6.67;;;;;17.11;93.16;99971.47;5088198;27;45376;-79
2023/04/15 01:02:47;;;;;;;;;7.00;7.00;;;;;17.16;92.32;99971.59;5089065;28;45276;-79
2023/04/15 01:05:16;;;;;;;;;9.00;7.00;;;;;17.28;92.41;99979.63;5090491;28;45953;-79
2023/04/15 01:07:41;;;;;;;;;6.33;6.00;;;;;17.34;92.38;99983.22;5093835;27;45287;-79
2023/04/15 01:10:07;;;;;;;;;8.67;8.67;;;;;17.38;92.73;99981.69;5087649;27;45265;-78
2023/04/15 01:12:33;;;;;;;;;8.33;7.00;;;;;17.26;92.72;99963.75;5085131;28;45354;-78
2023/04/15 01:14:59;;;;;;;;;7.00;6.67;;;;;17.26;92.59;99965.59;5087361;28;46166;-79
2023/04/15 01:17:24;;;;;;;;;6.33;6.33;;;;;17.30;92.98;99980.19;5090038;28;45390;-79
2023/04/15 01:19:51;;;;;;;;;6.00;6.00;;;;;17.33;92.99;99982.38;5089701;28;45310;-79
2023/04/15 01:22:16;;;;;;;;;8.00;6.00;;;;;17.34;93.50;99988.59;5086818;28;45385;-79
2023/04/15 01:24:48;;;;;;;;;6.67;6.67;;;;;17.31;93.86;99984.53;5092487;28;45219;-79
2023/04/15 01:27:13;;;;;;;;;5.67;5.67;;;;;17.40;93.77;99984.94;5074115;28;46972;-79
2023/04/15 01:29:39;;;;;;;;;7.33;7.00;;;;;17.44;93.40;99988.78;5080048;28;45286;-79
2023/04/15 01:32:04;;;;;;;;;6.67;6.33;;;;;17.38;93.20;99976.31;5087769;28;45237;-79
2023/04/15 01:34:30;;;;;;;;;10.00;9.00;;;;;17.51;92.64;99989.47;5090079;27;45477;-79
2023/04/15 01:36:55;;;;;;;;;10.33;10.33;;;;;17.59;92.18;99988.28;5087760;28;47204;-78
2023/04/15 01:39:20;;;;;;;;;9.67;7.67;;;;;17.57;92.57;99994.94;5089255;28;45936;-79
2023/04/15 01:41:46;;;;;;;;;10.00;7.33;;;;;17.50;93.00;99989.69;5090149;28;45360;-79
2023/04/15 01:44:11;;;;;;;;;9.33;9.00;;;;;17.52;92.78;99982.22;5093408;28;53783;-78
2023/04/15 01:46:36;;;;;;;;;7.67;7.67;;;;;17.65;93.21;99990.00;5081316;27;45979;-78
2023/04/15 01:49:02;;;;;;;;;8.33;7.00;;;;;17.66;93.02;99982.78;5080502;28;45297;-79
2023/04/15 01:51:27;;;;;;;;;2.67;2.67;;;;;17.68;92.49;99991.38;5080787;28;45327;-78
2023/04/15 01:53:55;;;;;;;;;10.00;10.00;;;;;17.69;93.07;99989.53;5081236;27;45248;-80
2023/04/15 01:56:21;;;;;;;;;8.00;8.00;;;;;17.70;93.57;99972.34;5080979;28;46233;-80
2023/04/15 01:58:46;;;;;;;;;7.33;7.00;;;;;17.56;94.32;99978.00;5082092;27;45214;-80
2023/04/15 02:01:12;;;;;;;;;9.67;8.67;;;;;17.44;94.36;99961.09;5080644;28;45476;-81
2023/04/15 02:03:38;;;;;;;;;8.00;8.00;;;;;17.48;94.80;99965.75;5085237;27;45317;-80
2023/04/15 02:06:03;;;;;;;;;8.00;8.00;;;;;17.52;94.97;99963.44;5085070;28;47353;-79
2023/04/15 02:08:29;;;;;;;;;8.33;8.33;;;;;17.61;94.85;99967.38;5086372;28;45352;-79
2023/04/15 02:10:54;;;;;;;;;8.33;7.33;;;;;17.55;94.84;99957.56;5091020;28;45433;-79
2023/04/15 02:13:20;;;;;;;;;10.33;8.00;;;;;17.65;95.03;99976.56;5089736;27;45491;-79
2023/04/15 02:15:49;;;;;;;;;12.00;8.33;;;;;17.66;94.95;99966.66;5091232;28;45322;-79
2023/04/15 02:18:15;;;;;;;;;11.00;10.00;;;;;17.63;94.78;99964.44;5085439;28;45251;-79
2023/04/15 02:20:42;;;;;;;;;7.67;7.67;;;;;17.69;95.34;99976.88;5085376;28;45250;-80
2023/04/15 02:23:08;;;;;;;;;8.67;8.67;;;;;17.69;95.35;99984.16;5088734;27;45341;-80
2023/04/15 02:25:33;;;;;;;;;8.00;8.00;;;;;17.70;95.20;99980.41;5087804;27;45321;-80
2023/04/15 02:27:58;;;;;;;;;12.00;11.33;;;;;17.84;94.79;100002.44;5084621;27;45350;-80
2023/04/15 02:30:24;;;;;;;;;9.00;9.00;;;;;17.84;95.03;99997.84;5080736;28;45276;-81
2023/04/15 02:32:50;;;;;;;;;8.33;8.33;;;;;17.78;95.34;99999.63;5078566;28;46877;-80
2023/04/15 02:35:18;;;;;;;;;9.67;9.67;;;;;17.77;94.80;99992.63;5079734;27;45432;-79
2023/04/15 02:37:44;;;;;;;;;8.67;7.33;;;;;17.78;95.34;99994.25;5079639;28;45394;-79
2023/04/15 02:40:11;;;;;;;;;7.00;4.67;;;;;17.79;95.42;100001.28;5079971;27;45303;-79
2023/04/15 02:42:40;;;;;;;;;10.67;8.33;;;;;17.79;95.25;99995.09;5078354;28;47325;-78
2023/04/15 02:45:06;;;;;;;;;9.00;8.67;;;;;17.74;95.72;99995.81;5079676;27;46391;-78
2023/04/15 02:47:33;;;;;;;;;12.67;10.00;;;;;17.78;96.22;100001.53;5078186;28;45892;-79
2023/04/15 02:49:59;;;;;;;;;9.00;8.33;;;;;17.80;95.57;99996.72;5078603;28;45472;-77
2023/04/15 02:52:25;;;;;;;;;12.67;10.33;;;;;17.77;95.47;100002.56;5079319;27;45171;-78
2023/04/15 02:54:50;;;;;;;;;8.67;8.67;;;;;17.79;95.39;100000.47;5078280;28;47134;-78
2023/04/15 02:57:16;;;;;;;;;9.67;9.67;;;;;17.75;95.34;99991.25;5079754;28;45261;-79
2023/04/15 02:59:41;;;;;;;;;7.67;7.67;;;;;17.73;95.25;99987.97;5078524;28;45461;-78
2023/04/15 03:02:07;;;;;;;;;11.67;11.67;;;;;17.79;94.89;100001.28;5079461;27;49105;-78
2023/04/15 03:04:32;;;;;;;;;10.67;10.67;;;;;17.71;95.11;100008.91;5079536;27;45344;-79
2023/04/15 03:06:58;;;;;;;;;12.00;9.67;;;;;17.77;95.52;100022.19;5077792;28;46025;-80
2023/04/15 03:09:23;;;;;;;;;12.67;12.00;;;;;17.34;96.39;100031.56;5078084;28;45307;-78
2023/04/15 03:11:50;;;;;;;;;11.67;11.67;;;;;17.11;98.96;100015.25;5079503;27;45521;-78
2023/04/15 03:14:15;;;;;;;;;9.67;9.67;;;;;17.24;97.48;100038.34;5079461;27;45477;-79
2023/04/15 03:16:41;;;;;;;;;11.33;11.33;;;;;17.44;98.48;100039.00;5078983;28;49133;-79
2023/04/15 03:19:06;;;;;;;;;10.00;10.00;;;;;17.47;98.21;100055.47;5079603;27;45775;-79
2023/04/15 03:21:31;;;;;;;;;12.33;11.00;;;;;17.27;98.27;100059.34;5078675;27;55658;-79
2023/04/15 03:23:57;;;;;;;;;11.67;10.00;;;;;17.11;100.00;100058.22;5080878;27;47781;-80
2023/04/15 03:26:28;;;;;;;;;10.00;10.00;;;;;17.22;100.00;100061.13;5091031;27;50936;-78
2023/04/15 03:28:54;;;;;;;;;11.00;11.00;;;;;17.50;100.00;100072.97;5079340;28;45366;-79
2023/04/15 03:31:20;;;;;;;;;10.33;10.33;;;;;17.52;98.59;100074.38;5080604;28;45535;-78
2023/04/15 03:33:45;;;;;;;;;10.00;10.00;;;;;17.44;98.32;100080.09;5081341;28;47111;-78
2023/04/15 03:36:10;;;;;;;;;12.33;12.33;;;;;17.44;98.42;100087.34;5080994;28;45601;-78
2023/04/15 03:38:35;;;;;;;;;11.00;11.00;;;;;17.57;100.00;100084.41;5080933;28;47137;-79
2023/04/15 03:41:01;;;;;;;;;12.67;11.00;;;;;17.59;100.00;100087.66;5080888;28;57052;-79
2023/04/15 03:43:26;;;;;;;;;11.00;11.00;;;;;17.51;100.00;100072.75;5082071;28;57764;-79
2023/04/15 03:45:51;;;;;;;;;11.33;10.33;;;;;17.60;100.00;100069.69;5082104;27;57440;-79
2023/04/15 03:48:17;;;;;;;;;12.00;10.00;;;;;17.56;100.00;100061.28;5082587;28;45303;-79
2023/04/15 03:50:42;;;;;;;;;10.67;9.00;;;;;17.53;100.00;100064.44;5080831;28;46578;-78
2023/04/15 03:53:07;;;;;;;;;13.00;9.00;;;;;17.52;99.95;100071.69;5080537;28;57041;-78
2023/04/15 03:55:32;;;;;;;;;9.67;9.67;;;;;17.55;99.23;100065.03;5080819;28;49205;-78
2023/04/15 03:57:58;;;;;;;;;12.00;10.67;;;;;17.56;98.65;100072.03;5082215;28;49637;-79
2023/04/15 04:00:23;;;;;;;;;8.67;8.67;;;;;17.58;98.00;100078.00;5080492;28;52696;-79
2023/04/15 04:02:48;;;;;;;;;10.00;10.00;;;;;17.74;96.81;100072.91;5082203;27;45331;-79
2023/04/15 04:05:14;;;;;;;;;10.00;10.00;;;;;17.73;96.62;100087.41;5082221;27;45211;-79
2023/04/15 04:07:39;;;;;;;;;9.33;9.33;;;;;17.73;96.75;100088.22;5082115;27;45239;-79
2023/04/15 04:10:05;;;;;;;;;10.00;10.00;;;;;17.82;96.47;100098.59;5082193;27;45297;-79
2023/04/15 04:12:31;;;;;;;;;10.33;10.00;;;;;17.90;96.61;100098.22;5082105;27;45214;-79
2023/04/15 04:14:56;;;;;;;;;8.67;8.67;;;;;17.92;95.76;100101.47;5080145;28;56920;-78
2023/04/15 04:17:21;;;;;;;;;11.00;11.00;;;;;17.88;95.55;100098.47;5082237;28;45220;-79
2023/04/15 04:19:47;;;;;;;;;13.67;11.00;;;;;17.85;96.02;100092.75;5081911;28;45325;-79
2023/04/15 04:22:12;;;;;;;;;9.67;8.67;;;;;17.91;96.00;100097.16;5081643;27;45342;-79
2023/04/15 04:24:37;;;;;;;;;10.33;10.33;;;;;17.91;95.13;100098.00;5080317;28;50333;-79
2023/04/15 04:27:03;;;;;;;;;13.00;11.33;;;;;17.92;95.24;100105.00;5081724;28;45393;-79
2023/04/15 04:29:28;;;;;;;;;11.00;10.33;;;;;17.95;94.88;100111.75;5080336;28;45861;-79
2023/04/15 04:31:53;;;;;;;;;9.67;9.67;;;;;18.02;94.86;100112.44;5081762;28;46179;-79
2023/04/15 04:34:19;;;;;;;;;11.00;10.67;;;;;18.02;94.72;100111.63;5081870;28;45376;-79
2023/04/15 04:36:44;;;;;;;;;11.00;11.00;;;;;17.96;94.23;100107.22;5081514;28;45312;-79
2023/04/15 04:39:09;;;;;;;;;10.00;9.00;;;;;18.01;94.54;100110.81;5081528;28;45445;-79
2023/04/15 04:41:35;;;;;;;;;9.67;8.67;;;;;18.03;94.45;100118.63;5063062;28;46975;-79
2023/04/15 04:44:00;;;;;;;;;12.67;12.00;;;;;18.03;94.15;100114.09;5081300;28;54671;-77
2023/04/15 04:46:26;;;;;;;;;12.00;12.00;;;;;18.00;94.28;100119.94;5081715;28;45422;-78
2023/04/15 04:48:51;;;;;;;;;11.33;11.00;;;;;17.93;94.30;100113.88;5081996;28;45394;-78
2023/04/15 04:51:17;;;;;;;;;10.67;10.67;;;;;18.02;94.41;100133.13;5082627;28;53835;-78
2023/04/15 04:53:42;;;;;;;;;12.00;9.00;;;;;17.97;94.02;100130.34;5081343;28;45342;-78
2023/04/15 04:56:07;;;;;;;;;7.33;7.33;;;;;17.93;94.03;100140.78;5064287;28;45269;-77
2023/04/15 04:58:33;;;;;;;;;10.00;9.00;;;;;17.65;94.31;100137.78;5083571;28;45287;-78
2023/04/15 05:00:58;;;;;;;;;7.00;7.00;;;;;17.39;96.11;100139.91;5081499;28;45397;-77
2023/04/15 05:03:23;;;;;;;;;6.67;6.67;;;;;17.43;96.56;100151.00;5081087;28;45294;-76
2023/04/15 05:05:49;;;;;;;;;6.67;6.67;;;;;17.40;96.17;100159.53;5080897;28;45249;-76
2023/04/15 05:08:15;;;;;;;;;9.67;7.00;;;;;17.35;96.62;100156.72;5080877;28;45261;-76
2023/04/15 05:10:41;;;;;;;;;8.00;7.00;;;;;17.34;96.58;100150.56;5081134;28;46371;-76
2023/04/15 05:13:06;;;;;;;;;7.33;6.67;;;;;17.45;96.48;100153.47;5062784;28;45196;-76
2023/04/15 05:15:32;;;;;;;;;6.33;6.33;;;;;17.42;95.89;100147.50;5063131;28;45238;-76
2023/04/15 05:17:57;;;;;;;;;5.00;5.00;;;;;17.46;95.91;100157.78;5081186;28;45381;-75
2023/04/15 05:20:22;;;;;;;;;7.00;7.00;;;;;17.45;96.22;100164.22;5062564;28;47198;-76
2023/04/15 05:22:48;;;;;;;;;6.00;6.00;;;;;17.48;95.76;100172.59;5075460;28;50836;-76
2023/04/15 05:25:13;;;;;;;;;7.33;6.33;;;;;17.53;96.10;100188.84;5068663;28;45682;-76
2023/04/15 05:27:38;;;;;;;;;10.67;9.33;;;;;17.43;96.11;100180.56;5052537;28;46100;-76
2023/04/15 05:30:04;;;;;;;;;9.00;9.00;;;;;17.38;96.00;100191.16;5061568;28;47472;-75
2023/04/15 05:32:30;;;;;;;;;10.67;10.67;;;;;17.34;97.03;100200.75;5045865;28;45404;-75
2023/04/15 05:34:55;;;;;;;;;12.00;12.00;;;;;17.25;97.44;100201.09;5054711;28;45422;-76
2023/04/15 05:37:21;;;;;;;;;13.00;11.33;;;;;17.19;97.76;100210.09;5077951;28;45414;-76
2023/04/15 05:39:47;;;;;;;;;13.67;12.67;;;;;17.32;97.82;100222.47;5056783;28;47951;-76
2023/04/15 05:42:12;;;;;;;;;14.00;13.67;;;;;17.23;98.64;100226.53;5060049;28;45374;-76
2023/04/15 05:44:38;;;;;;;;;15.33;15.00;;;;;17.26;98.12;100223.38;5060630;28;45271;-77
2023/04/15 05:47:03;;;;;;;;;16.67;16.67;;;;;17.31;98.36;100236.13;5044809;28;47211;-78
2023/04/15 05:49:29;;;;;;;;;15.00;13.00;;;;;17.26;98.10;100239.50;5066339;28;47055;-77
2023/04/15 05:51:55;;;;;;;;;15.67;15.00;;;;;17.07;99.10;100226.16;5041908;28;45587;-76
2023/04/15 05:54:21;;;;;;;;;14.67;13.33;;;;;17.15;98.92;100235.78;5059468;28;45287;-77
2023/04/15 05:56:46;;;;;;;;;18.00;13.67;;;;;17.30;99.36;100254.09;5060215;28;45326;-78
2023/04/15 05:59:12;;;;;;;;;17.33;16.00;;;;;17.11;99.31;100237.25;5059936;28;45513;-77
2023/04/15 06:01:37;;;;;;;;;11.00;11.00;;;;;17.28;98.04;100275.84;5060108;28;45375;-80
2023/04/15 06:04:02;;;;;;;;;13.33;13.00;;;;;17.15;99.01;100271.47;5042197;28;45371;-76
2023/04/15 06:06:28;;;;;;;;;13.67;13.00;;;;;17.19;99.08;100273.69;5041477;28;46090;-77
2023/04/15 06:08:54;;;;;;;;;16.33;15.33;;;;;17.44;98.52;100289.63;5041691;28;48177;-79
2023/04/15 06:11:20;;;;;;;;;12.67;12.33;;;;;17.62;97.52;100294.09;5059936;28;45364;-77
2023/04/15 06:13:46;;;;;;;;;14.33;14.33;;;;;17.49;97.98;100292.44;5059971;28;45403;-78
2023/04/15 06:16:11;;;;;;;;;11.33;11.33;;;;;17.54;96.85;100310.56;5041574;28;46937;-78
2023/04/15 06:18:37;;;;;;;;;12.67;12.67;;;;;17.48;96.94;100308.81;5041430;28;52062;-79
2023/04/15 06:21:02;;;;;;;;;14.67;12.00;;;;;17.35;96.34;100301.75;5041411;28;45732;-77
2023/04/15 06:23:27;;;;;;;;;11.00;11.00;;;;;17.38;96.09;100317.41;5059627;28;45289;-77
2023/04/15 06:25:53;;;;;;;;;10.67;10.00;;;;;17.34;96.82;100322.44;5053321;28;45970;-78
2023/04/15 06:28:18;;;;;;;;;9.33;8.67;;;;;17.34;96.56;100335.03;5073224;28;57112;-78
2023/04/15 06:30:43;;;;;;;;;9.00;9.00;;;;;17.19;96.62;100325.53;5069833;28;45379;-78
2023/04/15 06:33:09;;;;;;;;;8.33;8.33;;;;;17.31;97.20;100335.50;5057253;28;45508;-77
2023/04/15 06:35:35;;;;;;;;;10.00;10.00;;;;;17.28;96.92;100342.16;5077191;28;45533;-78
2023/04/15 06:38:00;;;;;;;;;11.00;9.67;;;;;17.25;97.51;100340.75;5079253;28;45292;-78
2023/04/15 06:40:25;;;;;;;;;9.67;8.33;;;;;17.20;96.75;100345.97;5061619;28;45248;-79
2023/04/15 06:42:51;;;;;;;;;7.33;7.00;;;;;17.17;96.79;100357.16;5061643;28;45227;-79
2023/04/15 06:45:16;;;;;;;;;5.33;5.33;;;;;17.17;97.33;100357.16;5079835;28;45347;-78
2023/04/15 06:47:42;;;;;;;;;7.00;6.00;;;;;17.13;97.25;100374.78;5079572;28;45396;-78
2023/04/15 06:50:08;;;;;;;;;7.33;6.00;;;;;16.82;99.12;100382.75;5079707;28;45311;-79
2023/04/15 06:52:34;;;;;;;;;7.67;7.67;;;;;16.72;99.80;100369.03;5079387;28;45453;-79
2023/04/15 06:55:00;;;;;;;;;7.00;7.00;;;;;17.02;99.41;100366.41;5079542;28;45312;-79
2023/04/15 06:57:27;;;;;;;;;6.33;6.33;;;;;16.93;98.06;100383.88;5078205;28;47755;-79
2023/04/15 06:59:53;;;;;;;;;4.67;4.67;;;;;16.93;98.24;100375.81;5051827;28;45268;-77
2023/04/15 07:02:19;;;;;;;;;5.00;5.00;;;;;17.04;99.34;100396.53;5059377;28;45210;-76
2023/04/15 07:04:44;;;;;;;;;6.67;6.00;;;;;17.05;99.06;100391.97;5060841;28;45184;-79
2023/04/15 07:07:10;;;;;;;;;6.67;6.67;;;;;16.99;98.56;100391.03;5070165;28;48475;-77
2023/04/15 07:09:35;;;;;;;;;6.00;5.33;;;;;17.05;98.82;100405.41;5072807;28;50179;-78
2023/04/15 07:12:00;;;;;;;;;4.50;4.50;;;;;17.05;98.72;100405.41;5071258;28;45332;-80
2023/04/15 07:14:26;;;;;;;;;5.33;4.00;;;;;17.12;98.14;100410.75;5072523;28;45593;-78
2023/04/15 07:16:52;;;;;;;;;6.00;5.00;;;;;17.06;98.21;100414.28;5070357;28;45442;-78
2023/04/15 07:19:17;;;;;;;;;5.00;5.00;;;;;16.78;98.08;100397.66;5045657;28;45700;-77
2023/04/15 07:21:42;;;;;;;;;4.33;4.33;;;;;16.99;98.63;100430.47;5064922;28;47556;-78
2023/04/15 07:24:09;;;;;;;;;1.00;1.00;;;;;16.98;98.43;100443.09;5064641;28;45355;-77
2023/04/15 07:26:34;;;;;;;;;6.67;6.00;;;;;16.99;98.89;100454.63;5061656;28;45397;-77
2023/04/15 07:28:59;;;;;;;;;5.00;5.00;;;;;16.88;99.76;100450.84;5067150;28;45363;-77
2023/04/15 07:31:26;;;;;;;;;3.33;3.33;;;;;16.88;99.21;100456.22;5082296;27;45413;-76
2023/04/15 07:33:52;;;;;;;;;4.33;4.33;;;;;16.88;99.76;100467.75;5082269;27;45390;-78
2023/04/15 07:36:17;;;;;;;;;3.33;3.33;;;;;16.72;99.70;100476.38;5079938;28;48201;-77
2023/04/15 07:38:43;;;;;;;;;4.67;4.67;;;;;16.85;99.11;100475.44;5067148;28;45386;-76
2023/04/15 07:41:09;;;;;;;;;5.00;5.00;;;;;16.77;99.84;100474.66;5077194;28;45549;-76
2023/04/15 07:43:34;;;;;;;;;4.33;4.33;;;;;16.78;99.34;100484.38;5082196;28;45311;-76
2023/04/15 07:46:01;;;;;;;;;5.00;5.00;;;;;16.76;99.35;100482.97;5081746;28;47465;-77
2023/04/15 07:48:26;;;;;;;;;7.00;6.00;;;;;16.81;99.80;100503.75;5063168;28;55552;-78
2023/04/15 07:50:51;;;;;;;;;7.00;7.00;;;;;16.78;100.00;100502.31;5079685;28;51059;-78
2023/04/15 07:53:17;;;;;;;;;6.67;5.67;;;;;16.74;99.75;100501.97;5064079;28;46004;-78
2023/04/15 07:55:42;;;;;;;;;8.33;8.33;;;;;16.77;100.00;100493.44;5071775;28;45948;-78
2023/04/15 07:58:07;;;;;;;;;7.00;7.00;;;;;16.77;100.00;100512.22;5081529;28;45351;-78
2023/04/15 08:00:32;;;;;;;;;6.67;5.00;;;;;16.86;100.00;100526.22;5052705;28;45450;-78
2023/04/15 08:02:58;;;;;;;;;7.33;6.00;;;;;16.96;99.58;100528.38;5070621;28;45393;-77
2023/04/15 08:05:24;;;;;;;;;5.33;5.33;;;;;17.04;100.00;100533.44;5071358;28;45326;-77
2023/04/15 08:07:50;;;;;;;;;6.33;6.33;;;;;16.91;100.00;100536.25;5051844;28;45360;-76
2023/04/15 08:10:15;;;;;;;;;4.00;4.00;;;;;16.95;99.70;100552.75;5072758;28;45377;-77
2023/04/15 08:12:41;;;;;;;;;8.33;8.33;;;;;16.89;99.65;100543.72;5069980;28;45442;-79
2023/04/15 08:15:08;;;;;;;;;7.00;7.00;;;;;16.90;99.13;100562.28;5078583;28;46146;-78
2023/04/15 08:17:33;;;;;;;;;7.00;7.00;;;;;16.91;100.00;100571.16;5076341;28;45826;-78
2023/04/15 08:19:58;;;;;;;;;6.00;6.00;;;;;16.87;100.00;100570.78;5063926;28;45321;-79
2023/04/15 08:22:24;;;;;;;;;5.33;5.33;;;;;17.03;99.18;100574.75;5063397;28;45985;-79
2023/04/15 08:24:50;;;;;;;;;6.33;6.00;;;;;17.10;99.43;100582.78;5066331;28;45406;-79
2023/04/15 08:27:15;;;;;;;;;6.67;6.67;;;;;17.01;100.00;100579.53;5061656;28;45290;-79
2023/04/15 08:29:41;;;;;;;;;6.00;6.00;;;;;17.08;98.84;100584.88;5073409;28;45229;-80
2023/04/15 08:32:06;;;;;;;;;5.00;5.00;;;;;17.09;99.48;100601.81;5080622;28;46141;-79
2023/04/15 08:34:32;;;;;;;;;4.00;4.00;;;;;17.06;100.00;100603.03;5081969;28;45504;-78
2023/04/15 08:36:57;;;;;;;;;5.00;5.00;;;;;17.10;99.54;100611.50;5082267;27;45349;-77
2023/04/15 08:39:22;;;;;;;;;4.33;4.33;;;;;17.12;99.21;100618.28;5081778;28;45329;-78
2023/04/15 08:41:57;;;;;;;;;3.33;3.33;;;;;17.17;98.86;100614.94;5062556;28;48418;-78
2023/04/15 08:44:24;;;;;;;;;5.33;5.33;;;;;17.24;99.23;100615.69;5081651;28;45513;-78
2023/04/15 08:46:51;;;;;;;;;6.00;6.00;;;;;17.34;99.15;100617.88;5079845;28;45498;-79
2023/04/15 08:49:18;;;;;;;;;6.00;5.67;;;;;17.45;98.70;100629.72;5063070;28;45384;-78
2023/04/15 08:51:44;;;;;;;;;5.33;5.33;;;;;17.29;98.80;100626.59;5080602;28;45358;-78
2023/04/15 08:54:09;;;;;;;;;4.00;4.00;;;;;17.20;99.54;100649.41;5081264;28;46229;-78
2023/04/15 08:56:37;;;;;;;;;4.33;4.33;;;;;17.12;99.82;100658.56;5081247;28;45274;-78
2023/04/15 08:59:03;;;;;;;;;4.00;4.00;;;;;17.11;99.66;100653.41;5081197;28;45319;-78
2023/04/15 09:01:28;;;;;;;;;4.67;4.00;;;;;17.10;99.29;100654.47;5062471;28;47492;-78
2023/04/15 09:03:55;;;;;;;;;4.00;4.00;;;;;17.21;99.45;100677.09;5063025;28;47233;-78
2023/04/15 09:06:22;;;;;;;;;3.67;3.67;;;;;17.08;99.45;100659.22;5063051;28;45371;-79
2023/04/15 09:08:47;;;;;;;;;6.00;6.00;;;;;17.28;99.10;100686.75;5081101;28;45284;-79
2023/04/15 09:11:13;;;;;;;;;5.33;5.33;;;;;17.31;99.57;100684.63;5081232;28;45438;-80
2023/04/15 09:13:39;;;;;;;;;5.00;5.00;;;;;17.42;99.72;100694.66;5081010;28;50910;-77
2023/04/15 09:16:05;;;;;;;;;4.00;4.00;;;;;17.49;98.26;100699.97;5081183;28;45252;-78
2023/04/15 09:18:32;;;;;;;;;3.00;3.00;;;;;17.53;97.81;100703.84;5081595;28;45390;-79
2023/04/15 09:21:10;;;;;;;;;4.33;4.33;;;;;17.54;97.89;100713.56;5062519;28;46551;-77
2023/04/15 09:23:36;;;;;;;;;5.00;4.33;;;;;17.48;97.38;100704.50;5080885;28;46043;-78
2023/04/15 09:26:02;;;;;;;;;5.00;5.00;;;;;17.67;95.72;100707.22;5081034;28;45252;-76
2023/04/15 09:28:28;;;;;;;;;2.33;2.33;;;;;17.65;94.96;100720.06;5079759;28;45150;-78
2023/04/15 09:30:58;;;;;;;;;5.00;3.67;;;;;17.66;95.52;100727.91;5079388;28;46998;-78
2023/04/15 09:33:25;;;;;;;;;5.00;5.00;;;;;17.59;94.52;100729.84;5080753;27;45377;-78
2023/04/15 09:35:57;;;;;;;;;6.00;5.00;;;;;17.72;94.91;100738.81;5080779;27;45302;-78
2023/04/15 09:38:22;;;;;;;;;5.33;5.33;;;;;17.73;94.77;100743.13;5078864;28;45433;-79
2023/04/15 09:40:47;;;;;;;;;6.33;6.33;;;;;17.62;94.20;100745.50;5080435;28;52027;-78
2023/04/15 09:43:13;;;;;;;;;6.00;6.00;;;;;17.67;94.98;100748.38;5080578;28;48790;-76
2023/04/15 09:45:46;;;;;;;;;6.67;6.67;;;;;17.81;95.11;100759.00;5080759;27;45372;-78
2023/04/15 09:48:20;;;;;;;;;7.00;7.00;;;;;17.88;94.79;100751.69;5080867;27;45440;-78
2023/04/15 09:50:47;;;;;;;;;8.67;7.00;;;;;18.04;94.87;100770.94;5080406;27;45491;-77
2023/04/15 09:53:18;;;;;;;;;9.00;9.00;;;;;18.21;93.87;100779.28;5080289;28;45303;-77
2023/04/15 09:55:51;;;;;;;;;10.00;9.33;;;;;18.19;94.01;100781.34;5079133;28;45206;-78
2023/04/15 09:58:18;;;;;;;;;9.00;9.00;;;;;18.22;93.90;100788.97;5079277;28;45367;-78
2023/04/15 10:00:46;;;;;;;;;10.33;9.67;;;;;18.25;94.36;100771.56;5080301;27;45495;-78
2023/04/15 10:03:14;;;;;;;;;14.67;12.67;;;;;18.42;93.60;100799.53;5064073;28;46107;-77
2023/04/15 10:05:40;;;;;;;;;13.00;13.00;;;;;18.44;93.18;100803.84;5080131;28;45496;-75
2023/04/15 10:08:05;;;;;;;;;12.00;12.00;;;;;18.39;93.38;100799.13;5080199;28;45481;-77
2023/04/15 10:10:32;;;;;;;;;11.00;11.00;;;;;18.50;92.85;100797.56;5080244;28;45372;-76
2023/04/15 10:12:57;;;;;;;;;13.33;12.00;;;;;18.62;92.40;100811.88;5078680;28;47682;-76
2023/04/15 10:15:24;;;;;;;;;16.00;16.00;;;;;18.23;93.27;100796.00;5080183;28;45239;-77
2023/04/15 10:17:53;;;;;;;;;13.67;13.67;;;;;18.70;92.31;100816.13;5078899;28;45227;-77
2023/04/15 10:20:21;;;;;;;;;17.33;15.67;;;;;18.73;92.21;100826.44;5079864;28;45426;-78
2023/04/15 10:22:47;;;;;;;;;13.67;13.67;;;;;18.72;90.54;100821.28;5079833;28;45328;-78
2023/04/15 10:25:14;;;;;;;;;15.00;15.00;;;;;18.74;89.85;100832.66;5079236;28;45328;-78
2023/04/15 10:27:41;;;;;;;;;14.00;13.33;;;;;18.71;89.88;100828.56;5064523;28;45375;-76
2023/04/15 10:30:07;;;;;;;;;13.33;13.33;;;;;18.73;90.21;100831.00;5075341;28;46250;-77
2023/04/15 10:32:33;;;;;;;;;16.33;16.33;;;;;18.84;90.15;100835.63;5079570;28;48273;-78
2023/04/15 10:34:59;;;;;;;;;16.67;16.00;;;;;18.92;90.11;100839.91;5080899;28;45501;-77
2023/04/15 10:37:36;;;;;;;;;15.67;15.67;;;;;18.82;89.35;100843.13;5080115;27;45365;-75
2023/04/15 10:40:31;;;;;;;;;14.33;14.33;;;;;18.89;89.55;100851.13;5079686;27;45607;-77
2023/04/15 10:43:03;;;;;;;;;14.00;13.33;;;;;18.82;89.30;100845.81;5082142;28;47945;-78
2023/04/15 10:45:35;;;;;;;;;14.00;12.67;;;;;18.78;89.16;100850.84;5079083;27;45404;-76
2023/04/15 10:48:03;;;;;;;;;14.00;14.00;;;;;18.67;90.62;100825.50;5068600;28;45372;-75
2023/04/15 10:50:33;;;;;;;;;6.67;6.67;;;;;18.98;89.37;100851.63;5066872;28;45419;-77
2023/04/15 10:53:03;;;;;;;;;17.00;17.00;;;;;19.08;89.88;100864.56;5072320;28;45278;-75
2023/04/15 10:55:33;;;;;;;;;14.33;14.33;;;;;19.15;88.57;100852.66;5049540;28;45211;-77
2023/04/15 10:58:02;;;;;;;;;14.33;13.33;;;;;19.29;86.54;100857.84;5066189;28;45281;-76
2023/04/15 11:00:29;;;;;;;;;15.00;14.00;;;;;19.30;86.71;100860.31;5046356;28;47291;-77
2023/04/15 11:03:03;;;;;;;;;16.33;16.00;;;;;19.39;87.13;100871.56;5064943;27;46748;-78
2023/04/15 11:05:41;;;;;;;;;14.00;14.00;;;;;19.26;87.81;100875.28;5067512;28;45380;-78
2023/04/15 11:08:07;;;;;;;;;16.00;16.00;;;;;18.97;88.74;100885.78;5086259;28;45308;-78
2023/04/15 11:10:32;;;;;;;;;12.00;12.00;;;;;18.86;88.70;100887.38;5062877;28;46100;-76
2023/04/15 11:13:00;;;;;;;;;12.33;11.67;;;;;18.78;88.29;100906.53;5055237;28;47193;-77
2023/04/15 11:15:36;;;;;;;;;12.67;12.67;;;;;18.73;88.77;100906.38;5072125;28;45342;-77